Time;durP1;ratioP1;P1;durP2;ratioP2;P2;SDS_P1;SDS_P2;PMS_P1;PMS_P2;Temp;Humidity;BMP_temperature;BMP_pressure;BME280_temperature;BME280_humidity;BME280_pressure;Samples;Min_cycle;Max_cycle;Signal;HPM_P1;HPM_P2
2023/06/26 00:00:11;;;;;;;;;;;;;;;;;;5028229;27;90282;-75
2023/06/26 00:02:36;;;;;;;;;;;;;;;;;;5028784;28;90072;-74
2023/06/26 00:05:02;;;;;;;;;;;;;;;;;;5027894;27;89214;-74
2023/06/26 00:07:27;;;;;;;;;;;;;;;;;;5041166;27;92281;-74
2023/06/26 00:09:52;;;;;;;;;;;;;;;;;;5028085;28;89848;-74
2023/06/26 00:12:18;;;;;;;;;;;;;;;;;;5028093;28;89771;-74
2023/06/26 00:14:43;;;;;;;;;;;;;;;;;;5027179;28;90061;-74
2023/06/26 00:17:08;;;;;;;;;;;;;;;;;;5028727;28;89293;-74
2023/06/26 00:19:33;;;;;;;;;;;;;;;;;;5028116;28;89446;-74
2023/06/26 00:21:58;;;;;;;;;;;;;;;;;;5028463;27;89691;-74
2023/06/26 00:24:24;;;;;;;;;;;;;;;;;;5031237;28;89586;-75
2023/06/26 00:26:49;;;;;;;;;;;;;;;;;;5027362;28;90583;-74
2023/06/26 00:29:14;;;;;;;;;;;;;;;;;;5027599;27;90588;-75
2023/06/26 00:31:40;;;;;;;;;;;;;;;;;;5029046;28;89786;-74
2023/06/26 00:34:05;;;;;;;;;;;;;;;;;;5028389;27;89708;-75
2023/06/26 00:36:31;;;;;;;;;;;;;;;;;;5027852;27;89836;-74
2023/06/26 00:38:56;;;;;;;;;;;;;;;;;;5026921;28;89143;-75
2023/06/26 00:41:21;;;;;;;;;;;;;;;;;;5027801;27;92273;-74
2023/06/26 00:43:46;;;;;;;;;;;;;;;;;;5027530;28;89173;-74
2023/06/26 00:46:14;;;;;;;;;;;;;;;;;;5030728;28;90476;-74
2023/06/26 00:48:41;;;;;;;;;;;;;;;;;;5023012;28;90178;-75
2023/06/26 00:51:07;;;;;;;;;;;;;;;;;;5027758;28;88944;-75
2023/06/26 00:53:32;;;;;;;;;;;;;;;;;;5026535;28;92752;-75
2023/06/26 00:55:58;;;;;;;;;;;;;;;;;;5027072;28;90584;-75
2023/06/26 00:58:24;;;;;;;;;;;;;;;;;;5025210;28;89024;-75
2023/06/26 01:00:50;;;;;;;;;;;;;;;;;;5023772;28;92286;-75
2023/06/26 01:03:15;;;;;;;;;;;;;;;;;;5027678;27;89345;-74
2023/06/26 01:05:40;;;;;;;;;;;;;;;;;;5028342;28;89114;-74
2023/06/26 01:08:06;;;;;;;;;;;;;;;;;;5026968;28;92440;-74
2023/06/26 01:10:31;;;;;;;;;;;;;;;;;;5024442;28;90360;-74
2023/06/26 01:12:57;;;;;;;;;;;;;;;;;;5026520;28;89909;-74
2023/06/26 01:15:22;;;;;;;;;;;;;;;;;;5026947;28;89883;-74
2023/06/26 01:17:47;;;;;;;;;;;;;;;;;;5038720;27;90567;-74
2023/06/26 01:20:14;;;;;;;;;;;;;;;;;;5025586;28;89765;-75
2023/06/26 01:22:56;;;;;;;;;;;;;;;;;;5026384;27;89465;-74
2023/06/26 01:25:27;;;;;;;;;;;;;;;;;;5026495;28;89350;-75
2023/06/26 01:27:54;;;;;;;;;;;;;;;;;;5028867;28;90054;-74
2023/06/26 01:30:21;;;;;;;;;;;;;;;;;;5024993;28;89618;-74
2023/06/26 01:32:46;;;;;;;;;;;;;;;;;;5026404;27;89746;-75
2023/06/26 01:35:12;;;;;;;;;;;;;;;;;;5027270;27;89736;-74
2023/06/26 01:37:37;;;;;;;;;;;;;;;;;;5027091;27;89434;-75
2023/06/26 01:40:05;;;;;;;;;;;;;;;;;;5026162;27;89751;-74
2023/06/26 01:42:30;;;;;;;;;;;;;;;;;;5023666;28;90825;-74
2023/06/26 01:44:57;;;;;;;;;;;;;;;;;;5025705;28;90043;-75
2023/06/26 01:47:24;;;;;;;;;;;;;;;;;;5026921;27;90542;-75
2023/06/26 01:49:58;;;;;;;;;;;;;;;;;;5028130;28;92018;-74
2023/06/26 01:52:32;;;;;;;;;;;;;;;;;;5026456;28;89527;-74
2023/06/26 01:55:06;;;;;;;;;;;;;;;;;;5026343;28;89250;-74
2023/06/26 01:57:32;;;;;;;;;;;;;;;;;;5026279;28;89314;-74
2023/06/26 01:59:58;;;;;;;;;;;;;;;;;;5026859;27;89511;-75
2023/06/26 02:02:24;;;;;;;;;;;;;;;;;;5025035;28;91771;-74
2023/06/26 02:04:49;;;;;;;;;;;;;;;;;;5026256;28;89544;-75
2023/06/26 02:07:15;;;;;;;;;;;;;;;;;;5025704;28;89954;-75
2023/06/26 02:09:40;;;;;;;;;;;;;;;;;;5026542;27;89299;-74
2023/06/26 02:12:05;;;;;;;;;;;;;;;;;;5028750;28;90809;-75
2023/06/26 02:14:30;;;;;;;;;;;;;;;;;;5026304;27;89276;-74
2023/06/26 02:16:56;;;;;;;;;;;;;;;;;;5024401;28;91566;-75
2023/06/26 02:19:21;;;;;;;;;;;;;;;;;;5026550;28;89023;-74
2023/06/26 02:21:47;;;;;;;;;;;;;;;;;;5026018;27;90018;-74
2023/06/26 02:24:13;;;;;;;;;;;;;;;;;;5024860;28;89150;-74
2023/06/26 02:26:38;;;;;;;;;;;;;;;;;;5026066;28;89789;-74
2023/06/26 02:29:03;;;;;;;;;;;;;;;;;;5027055;28;89360;-75
2023/06/26 02:31:28;;;;;;;;;;;;;;;;;;5026138;27;89043;-75
2023/06/26 02:33:53;;;;;;;;;;;;;;;;;;5029180;28;89998;-76
2023/06/26 02:36:19;;;;;;;;;;;;;;;;;;5025766;28;89084;-75
2023/06/26 02:38:44;;;;;;;;;;;;;;;;;;5025835;28;90197;-75
2023/06/26 02:41:09;;;;;;;;;;;;;;;;;;5024566;28;89702;-75
2023/06/26 02:43:34;;;;;;;;;;;;;;;;;;5025606;28;89498;-74
2023/06/26 02:45:59;;;;;;;;;;;;;;;;;;5025689;28;89795;-74
2023/06/26 02:48:24;;;;;;;;;;;;;;;;;;5025610;28;90013;-74
2023/06/26 02:50:50;;;;;;;;;;;;;;;;;;5025262;28;89803;-75
2023/06/26 02:53:15;;;;;;;;;;;;;;;;;;5026021;28;90535;-75
2023/06/26 02:55:41;;;;;;;;;;;;;;;;;;5028727;27;90347;-75
2023/06/26 02:58:06;;;;;;;;;;;;;;;;;;5025828;28;89058;-75
2023/06/26 03:00:31;;;;;;;;;;;;;;;;;;5025451;28;89249;-75
2023/06/26 03:02:57;;;;;;;;;;;;;;;;;;5025430;28;89175;-75
2023/06/26 03:05:23;;;;;;;;;;;;;;;;;;5025065;28;89899;-75
2023/06/26 03:07:48;;;;;;;;;;;;;;;;;;5025675;28;90141;-75
2023/06/26 03:10:14;;;;;;;;;;;;;;;;;;5024517;28;90053;-74
2023/06/26 03:12:39;;;;;;;;;;;;;;;;;;5025380;28;90117;-75
2023/06/26 03:15:04;;;;;;;;;;;;;;;;;;5020276;28;89950;-75
2023/06/26 03:17:30;;;;;;;;;;;;;;;;;;5023882;28;89963;-76
2023/06/26 03:19:55;;;;;;;;;;;;;;;;;;5023182;28;89573;-75
2023/06/26 03:22:20;;;;;;;;;;;;;;;;;;5019732;27;89280;-75
2023/06/26 03:24:46;;;;;;;;;;;;;;;;;;5024072;28;89720;-75
2023/06/26 03:27:11;;;;;;;;;;;;;;;;;;5022908;27;89648;-74
2023/06/26 03:29:37;;;;;;;;;;;;;;;;;;5017752;28;90451;-75
2023/06/26 03:32:02;;;;;;;;;;;;;;;;;;5021482;28;89705;-74
2023/06/26 03:34:27;;;;;;;;;;;;;;;;;;5037646;27;92275;-75
2023/06/26 03:36:52;;;;;;;;;;;;;;;;;;5026288;27;90243;-74
2023/06/26 03:39:18;;;;;;;;;;;;;;;;;;5023687;28;89592;-75
2023/06/26 03:41:43;;;;;;;;;;;;;;;;;;5023640;28;89068;-76
2023/06/26 03:44:08;;;;;;;;;;;;;;;;;;5018678;28;89857;-75
2023/06/26 03:46:34;;;;;;;;;;;;;;;;;;5019653;28;89482;-76
2023/06/26 03:48:59;;;;;;;;;;;;;;;;;;5022139;28;89955;-75
2023/06/26 03:51:24;;;;;;;;;;;;;;;;;;5025023;28;89664;-75
2023/06/26 03:53:49;;;;;;;;;;;;;;;;;;5022136;28;90778;-75
2023/06/26 03:56:15;;;;;;;;;;;;;;;;;;5023482;28;89386;-75
2023/06/26 03:58:40;;;;;;;;;;;;;;;;;;5024769;27;89765;-75
2023/06/26 04:01:05;;;;;;;;;;;;;;;;;;5022547;28;89748;-75
2023/06/26 04:03:31;;;;;;;;;;;;;;;;;;5020541;27;89781;-75
2023/06/26 04:05:56;;;;;;;;;;;;;;;;;;5024336;28;90263;-75
2023/06/26 04:08:23;;;;;;;;;;;;;;;;;;5024056;28;89118;-75
2023/06/26 04:10:51;;;;;;;;;;;;;;;;;;5024010;27;89682;-75
2023/06/26 04:13:16;;;;;;;;;;;;;;;;;;5028712;27;90598;-75
2023/06/26 04:15:43;;;;;;;;;;;;;;;;;;5022246;28;89017;-75
2023/06/26 04:18:08;;;;;;;;;;;;;;;;;;5022043;28;90332;-75
2023/06/26 04:20:38;;;;;;;;;;;;;;;;;;5028837;28;89996;-75
2023/06/26 04:23:03;;;;;;;;;;;;;;;;;;5024214;27;89372;-75
2023/06/26 04:25:29;;;;;;;;;;;;;;;;;;5022487;28;90071;-75
2023/06/26 04:27:54;;;;;;;;;;;;;;;;;;5026000;27;89107;-75
2023/06/26 04:30:19;;;;;;;;;;;;;;;;;;5019503;28;89735;-75
2023/06/26 04:32:44;;;;;;;;;;;;;;;;;;5021576;28;89573;-75
2023/06/26 04:35:11;;;;;;;;;;;;;;;;;;5027002;28;89975;-75
2023/06/26 04:37:36;;;;;;;;;;;;;;;;;;5024864;28;91333;-74
2023/06/26 04:40:03;;;;;;;;;;;;;;;;;;5021447;28;90207;-75
2023/06/26 04:42:28;;;;;;;;;;;;;;;;;;5026852;28;90157;-75
2023/06/26 04:44:54;;;;;;;;;;;;;;;;;;5026327;28;89928;-75
2023/06/26 04:47:19;;;;;;;;;;;;;;;;;;5024532;28;89379;-76
2023/06/26 04:49:45;;;;;;;;;;;;;;;;;;5025185;28;89712;-75
2023/06/26 04:52:13;;;;;;;;;;;;;;;;;;5020137;27;89590;-74
2023/06/26 04:54:38;;;;;;;;;;;;;;;;;;5021757;27;89704;-75
2023/06/26 04:57:03;;;;;;;;;;;;;;;;;;5023367;28;91987;-75
2023/06/26 04:59:29;;;;;;;;;;;;;;;;;;5020940;27;89794;-75
2023/06/26 05:01:54;;;;;;;;;;;;;;;;;;5020576;28;89567;-75
2023/06/26 05:04:19;;;;;;;;;;;;;;;;;;5031410;27;90891;-74
2023/06/26 05:06:44;;;;;;;;;;;;;;;;;;5025184;28;89362;-75
2023/06/26 05:09:10;;;;;;;;;;;;;;;;;;5024382;28;89598;-74
2023/06/26 05:11:36;;;;;;;;;;;;;;;;;;5018538;28;89121;-75
2023/06/26 05:14:01;;;;;;;;;;;;;;;;;;5027087;27;90060;-75
2023/06/26 05:16:26;;;;;;;;;;;;;;;;;;5022763;27;91019;-75
2023/06/26 05:18:54;;;;;;;;;;;;;;;;;;5025313;27;90313;-77
2023/06/26 05:21:19;;;;;;;;;;;;;;;;;;5023767;28;89630;-74
2023/06/26 05:23:45;;;;;;;;;;;;;;;;;;5014808;28;91240;-71
2023/06/26 05:26:10;;;;;;;;;;;;;;;;;;5028425;27;90277;-78
2023/06/26 05:28:36;;;;;;;;;;;;;;;;;;5019789;27;91001;-76
2023/06/26 05:31:02;;;;;;;;;;;;;;;;;;5022556;28;89666;-74
2023/06/26 05:33:28;;;;;;;;;;;;;;;;;;5020620;28;90045;-77
2023/06/26 05:35:54;;;;;;;;;;;;;;;;;;5017593;28;89863;-73
2023/06/26 05:38:20;;;;;;;;;;;;;;;;;;5022272;28;89918;-73
2023/06/26 05:40:45;;;;;;;;;;;;;;;;;;5022703;28;90138;-72
2023/06/26 05:43:11;;;;;;;;;;;;;;;;;;5024694;28;89938;-73
2023/06/26 05:45:36;;;;;;;;;;;;;;;;;;5026180;27;89547;-73
2023/06/26 05:48:01;;;;;;;;;;;;;;;;;;5025600;28;89750;-73
2023/06/26 05:50:27;;;;;;;;;;;;;;;;;;5025183;28;89635;-73
2023/06/26 05:52:53;;;;;;;;;;;;;;;;;;5023230;28;89426;-73
2023/06/26 05:55:18;;;;;;;;;;;;;;;;;;5021664;28;89773;-74
2023/06/26 05:57:45;;;;;;;;;;;;;;;;;;5022703;28;89385;-73
2023/06/26 06:00:11;;;;;;;;;;;;;;;;;;5019825;28;89654;-74
2023/06/26 06:02:37;;;;;;;;;;;;;;;;;;5021946;28;89808;-73
2023/06/26 06:05:02;;;;;;;;;;;;;;;;;;5022600;28;89721;-74
2023/06/26 06:07:27;;;;;;;;;;;;;;;;;;5024354;28;89879;-74
2023/06/26 06:09:52;;;;;;;;;;;;;;;;;;5024821;28;89231;-77
2023/06/26 06:12:18;;;;;;;;;;;;;;;;;;5022292;28;90331;-74
2023/06/26 06:14:43;;;;;;;;;;;;;;;;;;5025449;28;90661;-75
2023/06/26 06:17:08;;;;;;;;;;;;;;;;;;5026303;27;89728;-72
2023/06/26 06:19:33;;;;;;;;;;;;;;;;;;5020055;28;89053;-76
2023/06/26 06:21:58;;;;;;;;;;;;;;;;;;5022727;28;89277;-75
2023/06/26 06:24:24;;;;;;;;;;;;;;;;;;5022001;28;89471;-74
2023/06/26 06:26:49;;;;;;;;;;;;;;;;;;5021016;28;89163;-73
2023/06/26 06:29:14;;;;;;;;;;;;;;;;;;5024476;27;89748;-75
2023/06/26 06:31:39;;;;;;;;;;;;;;;;;;5023392;28;89232;-74
2023/06/26 06:34:04;;;;;;;;;;;;;;;;;;5023796;28;92161;-75
2023/06/26 06:36:30;;;;;;;;;;;;;;;;;;5021354;28;90135;-73
2023/06/26 06:38:56;;;;;;;;;;;;;;;;;;5022045;28;90604;-74
2023/06/26 06:41:21;;;;;;;;;;;;;;;;;;5022795;28;89818;-74
2023/06/26 06:43:46;;;;;;;;;;;;;;;;;;5022418;28;90482;-74
2023/06/26 06:46:11;;;;;;;;;;;;;;;;;;5021672;28;89390;-75
2023/06/26 06:48:37;;;;;;;;;;;;;;;;;;5019244;28;89128;-74
2023/06/26 06:51:02;;;;;;;;;;;;;;;;;;5023863;28;89991;-74
2023/06/26 06:53:27;;;;;;;;;;;;;;;;;;5019161;28;91010;-74
2023/06/26 06:55:52;;;;;;;;;;;;;;;;;;5018234;28;90705;-74
2023/06/26 06:58:19;;;;;;;;;;;;;;;;;;5020243;28;89587;-74
2023/06/26 07:00:44;;;;;;;;;;;;;;;;;;5018823;28;90997;-74
2023/06/26 07:03:10;;;;;;;;;;;;;;;;;;5020707;28;90586;-74
2023/06/26 07:05:35;;;;;;;;;;;;;;;;;;5022872;28;89743;-75
2023/06/26 07:08:00;;;;;;;;;;;;;;;;;;5021169;28;89889;-74
2023/06/26 07:10:25;;;;;;;;;;;;;;;;;;5023597;28;90182;-74
2023/06/26 07:12:51;;;;;;;;;;;;;;;;;;5027009;28;89199;-74
2023/06/26 07:15:16;;;;;;;;;;;;;;;;;;5022325;28;90155;-74
2023/06/26 07:17:41;;;;;;;;;;;;;;;;;;5021041;28;89600;-74
2023/06/26 07:20:08;;;;;;;;;;;;;;;;;;5024343;28;90121;-74
2023/06/26 07:22:33;;;;;;;;;;;;;;;;;;5015715;28;92438;-74
2023/06/26 07:24:58;;;;;;;;;;;;;;;;;;5019216;27;89722;-74
2023/06/26 07:27:24;;;;;;;;;;;;;;;;;;5022426;28;90108;-74
2023/06/26 07:29:49;;;;;;;;;;;;;;;;;;5023635;28;90009;-74
2023/06/26 07:32:14;;;;;;;;;;;;;;;;;;5024586;27;89114;-73
2023/06/26 07:34:39;;;;;;;;;;;;;;;;;;5026698;28;89004;-74
2023/06/26 07:37:05;;;;;;;;;;;;;;;;;;5025089;28;89690;-74
2023/06/26 07:39:30;;;;;;;;;;;;;;;;;;5026859;27;90632;-74
2023/06/26 07:41:55;;;;;;;;;;;;;;;;;;5025004;28;89904;-74
2023/06/26 07:44:21;;;;;;;;;;;;;;;;;;5027023;27;89572;-74
2023/06/26 07:46:46;;;;;;;;;;;;;;;;;;5021168;27;89758;-74
2023/06/26 07:49:12;;;;;;;;;;;;;;;;;;5026043;28;91991;-74
2023/06/26 07:51:37;;;;;;;;;;;;;;;;;;5025069;28;89636;-74
2023/06/26 07:54:02;;;;;;;;;;;;;;;;;;5029437;28;89923;-74
2023/06/26 07:56:27;;;;;;;;;;;;;;;;;;5023772;28;90013;-74
2023/06/26 07:58:53;;;;;;;;;;;;;;;;;;5021500;28;89844;-74
2023/06/26 08:01:18;;;;;;;;;;;;;;;;;;5027758;28;89632;-73
2023/06/26 08:03:43;;;;;;;;;;;;;;;;;;5027270;28;89727;-74
2023/06/26 08:06:08;;;;;;;;;;;;;;;;;;5018521;28;89675;-74
2023/06/26 08:08:33;;;;;;;;;;;;;;;;;;5027147;28;89787;-74
2023/06/26 08:10:59;;;;;;;;;;;;;;;;;;5028075;28;89769;-74
2023/06/26 08:13:24;;;;;;;;;;;;;;;;;;5026045;28;90054;-74
2023/06/26 08:15:49;;;;;;;;;;;;;;;;;;5021742;27;89223;-74
2023/06/26 08:18:14;;;;;;;;;;;;;;;;;;5024213;28;89067;-74
2023/06/26 08:20:40;;;;;;;;;;;;;;;;;;5024108;28;89536;-74
2023/06/26 08:23:05;;;;;;;;;;;;;;;;;;5022560;28;89650;-74
2023/06/26 08:25:30;;;;;;;;;;;;;;;;;;5023727;28;89522;-74
2023/06/26 08:27:55;;;;;;;;;;;;;;;;;;5025089;28;90005;-74
2023/06/26 08:30:21;;;;;;;;;;;;;;;;;;5025879;28;89282;-74
2023/06/26 08:32:46;;;;;;;;;;;;;;;;;;5026587;28;90406;-74
2023/06/26 08:35:12;;;;;;;;;;;;;;;;;;5023564;28;90019;-73
2023/06/26 08:37:37;;;;;;;;;;;;;;;;;;5027318;27;89901;-74
2023/06/26 08:40:03;;;;;;;;;;;;;;;;;;5025106;28;89786;-74
2023/06/26 08:42:29;;;;;;;;;;;;;;;;;;5024525;28;89441;-75
2023/06/26 08:44:54;;;;;;;;;;;;;;;;;;5026712;28;90403;-74
2023/06/26 08:47:19;;;;;;;;;;;;;;;;;;5020993;28;89802;-74
2023/06/26 08:49:44;;;;;;;;;;;;;;;;;;5024456;28;89011;-74
2023/06/26 08:52:13;;;;;;;;;;;;;;;;;;5025384;28;89675;-74
2023/06/26 08:54:42;;;;;;;;;;;;;;;;;;5021394;28;89571;-74
2023/06/26 08:57:08;;;;;;;;;;;;;;;;;;5024824;28;89236;-74
2023/06/26 08:59:33;;;;;;;;;;;;;;;;;;5028390;28;90780;-73
2023/06/26 09:01:58;;;;;;;;;;;;;;;;;;5025496;28;89403;-73
2023/06/26 09:04:24;;;;;;;;;;;;;;;;;;5020505;28;91332;-74
2023/06/26 09:06:50;;;;;;;;;;;;;;;;;;5025158;27;90379;-74
2023/06/26 09:09:15;;;;;;;;;;;;;;;;;;5022991;28;90267;-73
2023/06/26 09:11:41;;;;;;;;;;;;;;;;;;5018275;28;90031;-73
2023/06/26 09:14:09;;;;;;;;;;;;;;;;;;5025144;27;90288;-74
2023/06/26 09:16:39;;;;;;;;;;;;;;;;;;5024667;28;89640;-73
2023/06/26 09:19:08;;;;;;;;;;;;;;;;;;5022013;27;90051;-74
2023/06/26 09:21:33;;;;;;;;;;;;;;;;;;5027178;28;89401;-73
2023/06/26 09:23:58;;;;;;;;;;;;;;;;;;5026102;28;90604;-74
2023/06/26 09:26:24;;;;;;;;;;;;;;;;;;5024460;27;92244;-73
2023/06/26 09:28:50;;;;;;;;;;;;;;;;;;5027195;27;90716;-73
2023/06/26 09:31:15;;;;;;;;;;;;;;;;;;5025331;27;89701;-73
2023/06/26 09:33:42;;;;;;;;;;;;;;;;;;5022792;28;91010;-73
2023/06/26 09:36:09;;;;;;;;;;;;;;;;;;5024891;28;89479;-73
2023/06/26 09:38:35;;;;;;;;;;;;;;;;;;5021389;28;90106;-73
2023/06/26 09:41:01;;;;;;;;;;;;;;;;;;5028973;28;89314;-73
2023/06/26 09:43:26;;;;;;;;;;;;;;;;;;5023181;27;90033;-73
2023/06/26 09:45:53;;;;;;;;;;;;;;;;;;5021195;28;91675;-73
2023/06/26 09:48:19;;;;;;;;;;;;;;;;;;5021487;28;90277;-74
2023/06/26 09:50:44;;;;;;;;;;;;;;;;;;5024560;27;89773;-75
2023/06/26 09:53:10;;;;;;;;;;;;;;;;;;5021528;28;89144;-73
2023/06/26 09:55:36;;;;;;;;;;;;;;;;;;5022867;28;91158;-73
2023/06/26 09:58:02;;;;;;;;;;;;;;;;;;5021383;27;90748;-74
2023/06/26 10:00:27;;;;;;;;;;;;;;;;;;5017379;28;89374;-74
2023/06/26 10:02:52;;;;;;;;;;;;;;;;;;5026059;28;89602;-74
2023/06/26 10:05:18;;;;;;;;;;;;;;;;;;5023925;28;89874;-74
2023/06/26 10:07:44;;;;;;;;;;;;;;;;;;5021972;28;90019;-74
2023/06/26 10:10:10;;;;;;;;;;;;;;;;;;5007120;28;92224;-74
2023/06/26 10:12:35;;;;;;;;;;;;;;;;;;5022630;27;89676;-74
2023/06/26 10:15:02;;;;;;;;;;;;;;;;;;5022553;28;89763;-73
2023/06/26 10:17:32;;;;;;;;;;;;;;;;;;5019720;27;89961;-74
2023/06/26 10:19:57;;;;;;;;;;;;;;;;;;5022966;28;90084;-76
2023/06/26 10:22:27;;;;;;;;;;;;;;;;;;5017529;27;90021;-74
2023/06/26 10:24:55;;;;;;;;;;;;;;;;;;5023213;27;90836;-74
2023/06/26 10:27:21;;;;;;;;;;;;;;;;;;5020777;28;90277;-74
2023/06/26 10:29:52;;;;;;;;;;;;;;;;;;5024437;28;90115;-73
2023/06/26 10:32:19;;;;;;;;;;;;;;;;;;5021324;28;90903;-73
2023/06/26 10:34:44;;;;;;;;;;;;;;;;;;5021123;27;90087;-73
2023/06/26 10:37:09;;;;;;;;;;;;;;;;;;5018239;28;91647;-72
2023/06/26 10:39:49;;;;;;;;;;;;;;;;;;5020142;28;89244;-71
2023/06/26 10:42:15;;;;;;;;;;;;;;;;;;5018418;28;89876;-73
2023/06/26 10:44:42;;;;;;;;;;;;;;;;;;5016993;28;90995;-71
2023/06/26 10:47:07;;;;;;;;;;;;;;;;;;5021810;28;90263;-71
2023/06/26 10:49:33;;;;;;;;;;;;;;;;;;5023393;27;89681;-72
2023/06/26 10:52:00;;;;;;;;;;;;;;;;;;5022969;27;89690;-69
2023/06/26 10:54:28;;;;;;;;;;;;;;;;;;5020040;27;89553;-73
2023/06/26 10:56:56;;;;;;;;;;;;;;;;;;5027021;28;90689;-68
2023/06/26 10:59:22;;;;;;;;;;;;;;;;;;5025940;27;92383;-73
2023/06/26 11:01:56;;;;;;;;;;;;;;;;;;5028107;28;89546;-71
2023/06/26 11:04:39;;;;;;;;;;;;;;;;;;5017427;28;90717;-77
2023/06/26 11:07:21;;;;;;;;;;;;;;;;;;5022929;28;90510;-69
2023/06/26 11:09:56;;;;;;;;;;;;;;;;;;5023891;28;89018;-72
2023/06/26 11:12:37;;;;;;;;;;;;;;;;;;5022404;28;89671;-71
2023/06/26 11:15:03;;;;;;;;;;;;;;;;;;5025478;28;89448;-68
2023/06/26 11:17:29;;;;;;;;;;;;;;;;;;5025407;28;91610;-69
2023/06/26 11:19:54;;;;;;;;;;;;;;;;;;5021525;28;89363;-69
2023/06/26 11:22:20;;;;;;;;;;;;;;;;;;5024391;28;89939;-65
2023/06/26 11:24:46;;;;;;;;;;;;;;;;;;5028216;28;91988;-69
2023/06/26 11:27:11;;;;;;;;;;;;;;;;;;5022845;28;91748;-71
2023/06/26 11:29:37;;;;;;;;;;;;;;;;;;5019371;27;89454;-74
2023/06/26 11:32:05;;;;;;;;;;;;;;;;;;5022038;27;91015;-71
2023/06/26 11:34:31;;;;;;;;;;;;;;;;;;5022403;27;89623;-76
2023/06/26 11:36:56;;;;;;;;;;;;;;;;;;5015881;27;91293;-70
2023/06/26 11:39:21;;;;;;;;;;;;;;;;;;5019814;27;91536;-71
2023/06/26 11:41:47;;;;;;;;;;;;;;;;;;5020446;28;91395;-72
2023/06/26 11:44:15;;;;;;;;;;;;;;;;;;5021553;28;90433;-73
2023/06/26 11:46:40;;;;;;;;;;;;;;;;;;5023586;28;89824;-72
2023/06/26 11:49:06;;;;;;;;;;;;;;;;;;5019480;28;89464;-72
2023/06/26 11:51:31;;;;;;;;;;;;;;;;;;5024630;28;89572;-72
2023/06/26 11:53:56;;;;;;;;;;;;;;;;;;5023277;27;90376;-72
2023/06/26 11:56:26;;;;;;;;;;;;;;;;;;5021085;28;89818;-71
2023/06/26 11:59:02;;;;;;;;;;;;;;;;;;5024801;27;90877;-71
2023/06/26 12:01:31;;;;;;;;;;;;;;;;;;5021751;28;92047;-71
2023/06/26 12:03:59;;;;;;;;;;;;;;;;;;5020727;28;93437;-71
2023/06/26 12:06:25;;;;;;;;;;;;;;;;;;5038893;27;92468;-71
2023/06/26 12:08:50;;;;;;;;;;;;;;;;;;5021862;28;89289;-71
2023/06/26 12:11:17;;;;;;;;;;;;;;;;;;5021433;28;89510;-71
2023/06/26 12:13:42;;;;;;;;;;;;;;;;;;5027179;27;89579;-71
2023/06/26 12:16:07;;;;;;;;;;;;;;;;;;5019758;28;90683;-71
2023/06/26 12:18:34;;;;;;;;;;;;;;;;;;5020060;28;90160;-72
2023/06/26 12:20:59;;;;;;;;;;;;;;;;;;5022797;28;89979;-73
2023/06/26 12:23:31;;;;;;;;;;;;;;;;;;5018546;28;92535;-72
2023/06/26 12:25:56;;;;;;;;;;;;;;;;;;5022695;28;89531;-72
2023/06/26 12:28:22;;;;;;;;;;;;;;;;;;5020001;28;90382;-72
2023/06/26 12:30:47;;;;;;;;;;;;;;;;;;5023345;28;90914;-72
2023/06/26 12:33:14;;;;;;;;;;;;;;;;;;5020318;28;91779;-72
2023/06/26 12:35:39;;;;;;;;;;;;;;;;;;5026604;27;89734;-72
2023/06/26 12:38:09;;;;;;;;;;;;;;;;;;5018724;28;90722;-72
2023/06/26 12:40:34;;;;;;;;;;;;;;;;;;5021972;28;89388;-72
2023/06/26 12:42:59;;;;;;;;;;;;;;;;;;5019746;28;90974;-72
2023/06/26 12:45:25;;;;;;;;;;;;;;;;;;5017960;28;89966;-72
2023/06/26 12:47:50;;;;;;;;;;;;;;;;;;5020852;28;92137;-73
2023/06/26 12:50:17;;;;;;;;;;;;;;;;;;5017839;28;90825;-72
2023/06/26 12:52:42;;;;;;;;;;;;;;;;;;5017538;27;89669;-71
2023/06/26 12:55:07;;;;;;;;;;;;;;;;;;5018734;27;90058;-72
2023/06/26 12:57:33;;;;;;;;;;;;;;;;;;5017766;27;91186;-73
2023/06/26 13:00:00;;;;;;;;;;;;;;;;;;5015208;28;90085;-73
2023/06/26 13:02:25;;;;;;;;;;;;;;;;;;5021569;28;90365;-72
2023/06/26 13:04:51;;;;;;;;;;;;;;;;;;5021721;28;89618;-73
2023/06/26 13:07:16;;;;;;;;;;;;;;;;;;5019472;27;90918;-73
2023/06/26 13:09:41;;;;;;;;;;;;;;;;;;5018849;27;90212;-73
2023/06/26 13:12:07;;;;;;;;;;;;;;;;;;5020075;28;89430;-73
2023/06/26 13:14:32;;;;;;;;;;;;;;;;;;5018860;28;89945;-74
2023/06/26 13:16:57;;;;;;;;;;;;;;;;;;5022066;27;90706;-73
2023/06/26 13:19:22;;;;;;;;;;;;;;;;;;5026378;28;89554;-73
2023/06/26 13:21:47;;;;;;;;;;;;;;;;;;5023717;28;93123;-72
2023/06/26 13:24:13;;;;;;;;;;;;;;;;;;5023425;27;89651;-73
2023/06/26 13:26:38;;;;;;;;;;;;;;;;;;5023302;28;89444;-70
2023/06/26 13:29:03;;;;;;;;;;;;;;;;;;5024384;28;90214;-72
2023/06/26 13:31:29;;;;;;;;;;;;;;;;;;5020271;28;89741;-72
2023/06/26 13:33:56;;;;;;;;;;;;;;;;;;5020867;28;89034;-73
2023/06/26 13:36:22;;;;;;;;;;;;;;;;;;5024131;27;90114;-72
2023/06/26 13:38:50;;;;;;;;;;;;;;;;;;5024952;28;89322;-72
2023/06/26 13:41:15;;;;;;;;;;;;;;;;;;5027768;27;89696;-73
2023/06/26 13:43:40;;;;;;;;;;;;;;;;;;5022084;28;89834;-72
2023/06/26 13:46:06;;;;;;;;;;;;;;;;;;5020182;28;89715;-73
2023/06/26 13:48:32;;;;;;;;;;;;;;;;;;5022095;27;90026;-73
2023/06/26 13:50:58;;;;;;;;;;;;;;;;;;5023304;27;91973;-73
2023/06/26 13:53:23;;;;;;;;;;;;;;;;;;5024328;27;89490;-72
2023/06/26 13:55:48;;;;;;;;;;;;;;;;;;5020200;28;90171;-72
2023/06/26 13:58:14;;;;;;;;;;;;;;;;;;5024419;28;89725;-72
2023/06/26 14:00:39;;;;;;;;;;;;;;;;;;5026231;28;90886;-73
2023/06/26 14:03:06;;;;;;;;;;;;;;;;;;5023480;27;89244;-73
2023/06/26 14:05:32;;;;;;;;;;;;;;;;;;5019736;28;89242;-73
2023/06/26 14:07:57;;;;;;;;;;;;;;;;;;5022838;28;89508;-72
2023/06/26 14:10:23;;;;;;;;;;;;;;;;;;5024401;28;89636;-73
2023/06/26 14:12:48;;;;;;;;;;;;;;;;;;5018446;27;89497;-72
2023/06/26 14:15:14;;;;;;;;;;;;;;;;;;5027634;27;92681;-73
2023/06/26 14:17:39;;;;;;;;;;;;;;;;;;5021280;28;89209;-72
2023/06/26 14:20:06;;;;;;;;;;;;;;;;;;5023686;27;89050;-73
2023/06/26 14:22:31;;;;;;;;;;;;;;;;;;5040475;27;91750;-73
2023/06/26 14:24:56;;;;;;;;;;;;;;;;;;5020975;28;91391;-73
2023/06/26 14:27:21;;;;;;;;;;;;;;;;;;5021936;28;90326;-73
2023/06/26 14:29:47;;;;;;;;;;;;;;;;;;5023451;28;89210;-72
2023/06/26 14:32:12;;;;;;;;;;;;;;;;;;5021521;28;89077;-73
2023/06/26 14:34:37;;;;;;;;;;;;;;;;;;5038882;27;90833;-73
2023/06/26 14:37:02;;;;;;;;;;;;;;;;;;5020782;28;90527;-72
2023/06/26 14:39:27;;;;;;;;;;;;;;;;;;5018099;28;89624;-72
2023/06/26 14:41:53;;;;;;;;;;;;;;;;;;5022712;28;90099;-72
2023/06/26 14:44:18;;;;;;;;;;;;;;;;;;5026692;27;92471;-72
2023/06/26 14:46:43;;;;;;;;;;;;;;;;;;5015082;28;92478;-72
2023/06/26 14:49:08;;;;;;;;;;;;;;;;;;5023452;28;89307;-72
2023/06/26 14:51:34;;;;;;;;;;;;;;;;;;5024025;28;89703;-72
2023/06/26 14:53:59;;;;;;;;;;;;;;;;;;5021700;27;89754;-73
2023/06/26 14:56:24;;;;;;;;;;;;;;;;;;5019127;28;89560;-73
2023/06/26 14:58:52;;;;;;;;;;;;;;;;;;5020063;27;89077;-72
2023/06/26 15:01:19;;;;;;;;;;;;;;;;;;5022391;28;89750;-73
2023/06/26 15:03:44;;;;;;;;;;;;;;;;;;5029151;27;90967;-73
2023/06/26 15:06:09;;;;;;;;;;;;;;;;;;5026627;27;90065;-72
2023/06/26 15:08:35;;;;;;;;;;;;;;;;;;5022242;28;90827;-73
2023/06/26 15:11:01;;;;;;;;;;;;;;;;;;5020338;28;90236;-73
2023/06/26 15:13:26;;;;;;;;;;;;;;;;;;5022277;27;93115;-72
2023/06/26 15:15:51;;;;;;;;;;;;;;;;;;5012591;28;92368;-73
2023/06/26 15:18:16;;;;;;;;;;;;;;;;;;5013971;28;89761;-73
2023/06/26 15:20:42;;;;;;;;;;;;;;;;;;5021592;28;89774;-72
2023/06/26 15:23:07;;;;;;;;;;;;;;;;;;5023403;28;89773;-73
2023/06/26 15:25:34;;;;;;;;;;;;;;;;;;5021429;28;89532;-73
2023/06/26 15:28:00;;;;;;;;;;;;;;;;;;5026591;28;89854;-73
2023/06/26 15:30:25;;;;;;;;;;;;;;;;;;5023184;28;90833;-73
2023/06/26 15:32:50;;;;;;;;;;;;;;;;;;5024640;28;91522;-73
2023/06/26 15:35:15;;;;;;;;;;;;;;;;;;5023746;28;90921;-73
2023/06/26 15:37:41;;;;;;;;;;;;;;;;;;5024213;28;89698;-73
2023/06/26 15:40:06;;;;;;;;;;;;;;;;;;5019450;28;89605;-72
2023/06/26 15:42:31;;;;;;;;;;;;;;;;;;5022363;28;89509;-72
2023/06/26 15:44:56;;;;;;;;;;;;;;;;;;5024622;28;89671;-73
2023/06/26 15:47:22;;;;;;;;;;;;;;;;;;5013640;28;92516;-73
2023/06/26 15:49:47;;;;;;;;;;;;;;;;;;5020827;28;89259;-73
2023/06/26 15:52:12;;;;;;;;;;;;;;;;;;5021961;28;89870;-73
2023/06/26 15:54:37;;;;;;;;;;;;;;;;;;5022447;27;90387;-73
2023/06/26 15:57:03;;;;;;;;;;;;;;;;;;5019323;28;89532;-73
2023/06/26 15:59:28;;;;;;;;;;;;;;;;;;5026034;28;90906;-73
2023/06/26 16:01:54;;;;;;;;;;;;;;;;;;5026819;28;89213;-73
2023/06/26 16:04:21;;;;;;;;;;;;;;;;;;5025325;27;89713;-73
2023/06/26 16:06:46;;;;;;;;;;;;;;;;;;5022736;28;91008;-73
2023/06/26 16:09:12;;;;;;;;;;;;;;;;;;5025812;27;89565;-73
2023/06/26 16:11:37;;;;;;;;;;;;;;;;;;5026607;28;89789;-74
2023/06/26 16:14:02;;;;;;;;;;;;;;;;;;5031113;28;89924;-73
2023/06/26 16:16:27;;;;;;;;;;;;;;;;;;5026204;28;89679;-73
2023/06/26 16:18:53;;;;;;;;;;;;;;;;;;5022095;28;90508;-73
2023/06/26 16:21:18;;;;;;;;;;;;;;;;;;5022609;28;90411;-73
2023/06/26 16:23:43;;;;;;;;;;;;;;;;;;5022328;28;89367;-73
2023/06/26 16:26:08;;;;;;;;;;;;;;;;;;5026333;28;89859;-73
2023/06/26 16:28:34;;;;;;;;;;;;;;;;;;5016600;28;91884;-73
2023/06/26 16:30:59;;;;;;;;;;;;;;;;;;5019827;28;90850;-74
2023/06/26 16:33:24;;;;;;;;;;;;;;;;;;5024750;28;89844;-74
2023/06/26 16:35:49;;;;;;;;;;;;;;;;;;5021829;28;89570;-74